Airport Name : Nuuk

Other Name : Nuuk

ICAO : BGGH

IATA : GOH

FAA :

Latitude : 64.190922

Longitude : -51.678064

Country : Greenland

Local Date and Time : 28 Oct 2020 17:19

 

TAF (Terminal Aerodrome Forecast)

TAF BGGH 281429Z 2815/2821 06008KT 9999 SCT020 TEMPO 2815/2821 BKN020

 

METAR (METeorological Aerodrome Report)

BGGH 281950Z 06005KT 9999 FEW020 BKN190 M06/M10 Q0995

BGGH 281850Z 06006KT 9999 FEW020 BKN190 M05/M11 Q0995

BGGH 281750Z 05005KT 9999 FEW020 BKN190 M05/M10 Q0995

To Charter a Jet Click here.